Accueil
METAR-TAF:

METAR-TAF

Aéroports :

Aéroport du Gloucestershire

Gloucester, Angleterre

latitude: 51-54N, longitude: 002-10W, altitude: 29 m

Observation

Le bulletin a été fait il y a 8 heures et 42 minutes, à 18:20 UTC
Vent 3 kt de ouest
Température 19°C
Humidité 60%
Pression 1014 hPa
Visibilité 10 km ou plus
Quelques nuages à une hauteur de 4200 ft

METAR: EGBJ 161820Z 28003KT 9999 FEW042 19/11 Q1014

Heure: 04:02 (03:02 UTC)

Prévision

Le bulletin a été fait il y a 13 heures et 4 minutes, à 13:58 UTC
Prévision valable du 16 à 15 UTC au 16 à 19 UTC
Vent 9 kt de ouest
Visibilité 10 km ou plus
Nuages épars à une hauteur de 3000 ft
Probabilité 30% :
Temporairement
du 16 à 15 UTC au 16 à 18 UTC
Visibilité: 9000 m
faibles averses de pluie

TAF: EGBJ 161358Z 1615/1619 26009KT 9999 SCT030 PROB30 TEMPO 1615/1618 9000 -SHRA

Observations et prévisions météorologiques de plus de 4000 aéroports (messages METAR et TAF).

Les stations disponibles sont représentées par des disques jaunes et rouges sur la carte.

Passer la souris dessus pour voir le nom de la station.

Cliquer dessus pour voir les observations et prévisions météorologiques.

Pour changer de carte: cliquez sur les boutons verts avec une croix noire pour zoomer, sur le bouton vert avec un tiret pour effectuer un zoom arrière, ou sur les flèches vertes pour les cartes adjacentes.


METAR-TAF: